sensor_id;sensor_type;location;lat;lon;timestamp;temperature;humidity
68026;SHT31;54819;48.030;14.710;2024-01-15T00:00:16;-4.65;82.79
68026;SHT31;54819;48.030;14.710;2024-01-15T00:02:44;-4.53;82.81
68026;SHT31;54819;48.030;14.710;2024-01-15T00:05:10;-4.43;82.90
68026;SHT31;54819;48.030;14.710;2024-01-15T00:07:37;-4.36;82.82
68026;SHT31;54819;48.030;14.710;2024-01-15T00:10:04;-4.26;82.66
68026;SHT31;54819;48.030;14.710;2024-01-15T00:12:31;-4.19;82.51
68026;SHT31;54819;48.030;14.710;2024-01-15T00:14:57;-4.10;82.50
68026;SHT31;54819;48.030;14.710;2024-01-15T00:17:24;-4.02;82.50
68026;SHT31;54819;48.030;14.710;2024-01-15T00:19:51;-3.93;82.43
68026;SHT31;54819;48.030;14.710;2024-01-15T00:22:18;-3.88;82.37
68026;SHT31;54819;48.030;14.710;2024-01-15T00:24:45;-3.83;82.36
68026;SHT31;54819;48.030;14.710;2024-01-15T00:27:12;-3.81;82.27
68026;SHT31;54819;48.030;14.710;2024-01-15T00:29:38;-3.81;82.20
68026;SHT31;54819;48.030;14.710;2024-01-15T00:32:05;-3.81;82.19
68026;SHT31;54819;48.030;14.710;2024-01-15T00:34:32;-3.80;82.20
68026;SHT31;54819;48.030;14.710;2024-01-15T00:36:59;-3.79;82.26
68026;SHT31;54819;48.030;14.710;2024-01-15T00:39:25;-3.80;82.31
68026;SHT31;54819;48.030;14.710;2024-01-15T00:41:52;-3.80;82.29
68026;SHT31;54819;48.030;14.710;2024-01-15T00:44:19;-3.78;82.28
68026;SHT31;54819;48.030;14.710;2024-01-15T00:46:46;-3.76;82.30
68026;SHT31;54819;48.030;14.710;2024-01-15T00:49:13;-3.75;82.38
68026;SHT31;54819;48.030;14.710;2024-01-15T00:51:40;-3.76;82.47
68026;SHT31;54819;48.030;14.710;2024-01-15T00:54:07;-3.75;82.56
68026;SHT31;54819;48.030;14.710;2024-01-15T00:56:35;-3.73;82.52
68026;SHT31;54819;48.030;14.710;2024-01-15T00:59:01;-3.72;82.60
68026;SHT31;54819;48.030;14.710;2024-01-15T01:01:28;-3.73;82.77
68026;SHT31;54819;48.030;14.710;2024-01-15T01:03:55;-3.74;82.87
68026;SHT31;54819;48.030;14.710;2024-01-15T01:06:22;-3.72;82.87
68026;SHT31;54819;48.030;14.710;2024-01-15T01:08:49;-3.70;82.86
68026;SHT31;54819;48.030;14.710;2024-01-15T01:11:16;-3.70;82.84
68026;SHT31;54819;48.030;14.710;2024-01-15T01:13:43;-3.69;82.84
68026;SHT31;54819;48.030;14.710;2024-01-15T01:16:09;-3.70;82.81
68026;SHT31;54819;48.030;14.710;2024-01-15T01:18:36;-3.71;82.84
68026;SHT31;54819;48.030;14.710;2024-01-15T01:21:03;-3.70;82.91
68026;SHT31;54819;48.030;14.710;2024-01-15T01:23:30;-3.68;82.97
68026;SHT31;54819;48.030;14.710;2024-01-15T01:25:57;-3.65;82.91
68026;SHT31;54819;48.030;14.710;2024-01-15T01:28:23;-3.63;82.92
68026;SHT31;54819;48.030;14.710;2024-01-15T01:30:50;-3.62;82.89
68026;SHT31;54819;48.030;14.710;2024-01-15T01:33:17;-3.62;82.93
68026;SHT31;54819;48.030;14.710;2024-01-15T01:35:44;-3.59;83.02
68026;SHT31;54819;48.030;14.710;2024-01-15T01:38:12;-3.57;83.11
68026;SHT31;54819;48.030;14.710;2024-01-15T01:40:39;-3.54;83.23
68026;SHT31;54819;48.030;14.710;2024-01-15T01:43:05;-3.51;83.30
68026;SHT31;54819;48.030;14.710;2024-01-15T01:45:32;-3.49;83.32
68026;SHT31;54819;48.030;14.710;2024-01-15T01:48:00;-3.47;83.31
68026;SHT31;54819;48.030;14.710;2024-01-15T01:50:28;-3.42;83.37
68026;SHT31;54819;48.030;14.710;2024-01-15T01:52:58;-3.41;83.40
68026;SHT31;54819;48.030;14.710;2024-01-15T01:55:26;-3.40;83.43
68026;SHT31;54819;48.030;14.710;2024-01-15T01:57:54;-3.38;83.54
68026;SHT31;54819;48.030;14.710;2024-01-15T02:00:22;-3.34;83.67
68026;SHT31;54819;48.030;14.710;2024-01-15T02:02:49;-3.28;83.74
68026;SHT31;54819;48.030;14.710;2024-01-15T02:05:18;-3.25;83.81
68026;SHT31;54819;48.030;14.710;2024-01-15T02:07:45;-3.20;83.88
68026;SHT31;54819;48.030;14.710;2024-01-15T02:10:13;-3.16;83.99
68026;SHT31;54819;48.030;14.710;2024-01-15T02:12:42;-3.11;84.15
68026;SHT31;54819;48.030;14.710;2024-01-15T02:15:09;-3.02;84.39
68026;SHT31;54819;48.030;14.710;2024-01-15T02:17:55;-2.98;84.39
68026;SHT31;54819;48.030;14.710;2024-01-15T02:20:24;-2.95;84.42
68026;SHT31;54819;48.030;14.710;2024-01-15T02:22:51;-2.92;84.36
68026;SHT31;54819;48.030;14.710;2024-01-15T02:25:18;-2.86;84.34
68026;SHT31;54819;48.030;14.710;2024-01-15T02:27:45;-2.74;84.42
68026;SHT31;54819;48.030;14.710;2024-01-15T02:30:13;-2.65;84.26
68026;SHT31;54819;48.030;14.710;2024-01-15T02:32:40;-2.57;84.10
68026;SHT31;54819;48.030;14.710;2024-01-15T02:35:07;-2.49;83.97
68026;SHT31;54819;48.030;14.710;2024-01-15T02:37:33;-2.42;83.88
68026;SHT31;54819;48.030;14.710;2024-01-15T02:40:00;-2.36;83.75
68026;SHT31;54819;48.030;14.710;2024-01-15T02:42:27;-2.31;83.67
68026;SHT31;54819;48.030;14.710;2024-01-15T02:44:53;-2.22;83.58
68026;SHT31;54819;48.030;14.710;2024-01-15T02:47:20;-2.09;83.54
68026;SHT31;54819;48.030;14.710;2024-01-15T02:49:46;-1.96;83.30
68026;SHT31;54819;48.030;14.710;2024-01-15T02:52:13;-1.84;83.10
68026;SHT31;54819;48.030;14.710;2024-01-15T02:54:41;-1.75;82.87
68026;SHT31;54819;48.030;14.710;2024-01-15T02:57:08;-1.68;82.62
68026;SHT31;54819;48.030;14.710;2024-01-15T02:59:34;-1.62;82.38
68026;SHT31;54819;48.030;14.710;2024-01-15T03:02:01;-1.59;82.16
68026;SHT31;54819;48.030;14.710;2024-01-15T03:04:28;-1.58;82.00
68026;SHT31;54819;48.030;14.710;2024-01-15T03:06:55;-1.59;81.90
68026;SHT31;54819;48.030;14.710;2024-01-15T03:09:21;-1.61;81.87
68026;SHT31;54819;48.030;14.710;2024-01-15T03:11:48;-1.63;81.90
68026;SHT31;54819;48.030;14.710;2024-01-15T03:14:15;-1.64;81.90
68026;SHT31;54819;48.030;14.710;2024-01-15T03:16:42;-1.60;82.09
68026;SHT31;54819;48.030;14.710;2024-01-15T03:19:08;-1.38;82.35
68026;SHT31;54819;48.030;14.710;2024-01-15T03:21:35;-1.16;82.11
68026;SHT31;54819;48.030;14.710;2024-01-15T03:24:02;-0.95;81.38
68026;SHT31;54819;48.030;14.710;2024-01-15T03:26:29;-0.75;80.75
68026;SHT31;54819;48.030;14.710;2024-01-15T03:28:55;-0.61;80.54
68026;SHT31;54819;48.030;14.710;2024-01-15T03:31:22;-0.47;80.25
68026;SHT31;54819;48.030;14.710;2024-01-15T03:33:49;-0.31;79.38
68026;SHT31;54819;48.030;14.710;2024-01-15T03:36:15;-0.16;78.82
68026;SHT31;54819;48.030;14.710;2024-01-15T03:38:42;-0.04;78.27
68026;SHT31;54819;48.030;14.710;2024-01-15T03:41:09;0.10;77.15
68026;SHT31;54819;48.030;14.710;2024-01-15T03:43:36;0.26;76.08
68026;SHT31;54819;48.030;14.710;2024-01-15T03:46:02;0.33;76.34
68026;SHT31;54819;48.030;14.710;2024-01-15T03:48:30;0.40;75.67
68026;SHT31;54819;48.030;14.710;2024-01-15T03:50:58;0.47;75.28
68026;SHT31;54819;48.030;14.710;2024-01-15T03:53:24;0.54;74.89
68026;SHT31;54819;48.030;14.710;2024-01-15T03:55:51;0.49;75.14
68026;SHT31;54819;48.030;14.710;2024-01-15T03:58:18;0.34;75.38
68026;SHT31;54819;48.030;14.710;2024-01-15T04:00:45;0.19;75.71
68026;SHT31;54819;48.030;14.710;2024-01-15T04:03:12;0.06;76.18
68026;SHT31;54819;48.030;14.710;2024-01-15T04:05:39;-0.05;76.53
68026;SHT31;54819;48.030;14.710;2024-01-15T04:08:05;-0.13;76.76
68026;SHT31;54819;48.030;14.710;2024-01-15T04:10:32;-0.21;76.89
68026;SHT31;54819;48.030;14.710;2024-01-15T04:12:59;-0.28;77.04
68026;SHT31;54819;48.030;14.710;2024-01-15T04:15:28;-0.34;76.96
68026;SHT31;54819;48.030;14.710;2024-01-15T04:17:54;-0.39;76.99
68026;SHT31;54819;48.030;14.710;2024-01-15T04:20:21;-0.45;76.88
68026;SHT31;54819;48.030;14.710;2024-01-15T04:22:51;-0.46;76.98
68026;SHT31;54819;48.030;14.710;2024-01-15T04:25:18;-0.47;76.93
68026;SHT31;54819;48.030;14.710;2024-01-15T04:27:45;-0.46;76.96
68026;SHT31;54819;48.030;14.710;2024-01-15T04:30:12;-0.45;77.04
68026;SHT31;54819;48.030;14.710;2024-01-15T04:32:39;-0.45;76.83
68026;SHT31;54819;48.030;14.710;2024-01-15T04:35:06;-0.45;76.97
68026;SHT31;54819;48.030;14.710;2024-01-15T04:37:33;-0.44;77.09
68026;SHT31;54819;48.030;14.710;2024-01-15T04:40:00;-0.45;77.03
68026;SHT31;54819;48.030;14.710;2024-01-15T04:42:26;-0.48;76.91
68026;SHT31;54819;48.030;14.710;2024-01-15T04:44:53;-0.47;76.89
68026;SHT31;54819;48.030;14.710;2024-01-15T04:47:20;-0.50;76.88
68026;SHT31;54819;48.030;14.710;2024-01-15T04:49:46;-0.52;76.97
68026;SHT31;54819;48.030;14.710;2024-01-15T04:52:14;-0.53;77.08
68026;SHT31;54819;48.030;14.710;2024-01-15T04:54:41;-0.54;77.16
68026;SHT31;54819;48.030;14.710;2024-01-15T04:57:08;-0.56;77.19
68026;SHT31;54819;48.030;14.710;2024-01-15T04:59:34;-0.57;77.28
68026;SHT31;54819;48.030;14.710;2024-01-15T05:02:01;-0.59;77.32
68026;SHT31;54819;48.030;14.710;2024-01-15T05:04:28;-0.63;77.41
68026;SHT31;54819;48.030;14.710;2024-01-15T05:06:55;-0.62;77.43
68026;SHT31;54819;48.030;14.710;2024-01-15T05:09:22;-0.60;77.34
68026;SHT31;54819;48.030;14.710;2024-01-15T05:11:48;-0.56;77.31
68026;SHT31;54819;48.030;14.710;2024-01-15T05:14:15;-0.53;77.34
68026;SHT31;54819;48.030;14.710;2024-01-15T05:16:48;-0.48;77.31
68026;SHT31;54819;48.030;14.710;2024-01-15T05:19:16;-0.43;77.27
68026;SHT31;54819;48.030;14.710;2024-01-15T05:21:43;-0.43;77.04
68026;SHT31;54819;48.030;14.710;2024-01-15T05:24:10;-0.41;76.94
68026;SHT31;54819;48.030;14.710;2024-01-15T05:26:36;-0.42;76.94
68026;SHT31;54819;48.030;14.710;2024-01-15T05:29:03;-0.42;76.86
68026;SHT31;54819;48.030;14.710;2024-01-15T05:31:30;-0.44;76.78
68026;SHT31;54819;48.030;14.710;2024-01-15T05:33:57;-0.44;76.98
68026;SHT31;54819;48.030;14.710;2024-01-15T05:36:23;-0.44;77.07
68026;SHT31;54819;48.030;14.710;2024-01-15T05:38:50;-0.47;77.03
68026;SHT31;54819;48.030;14.710;2024-01-15T05:41:17;-0.46;77.30
68026;SHT31;54819;48.030;14.710;2024-01-15T05:43:44;-0.46;77.44
68026;SHT31;54819;48.030;14.710;2024-01-15T05:46:10;-0.45;77.41
68026;SHT31;54819;48.030;14.710;2024-01-15T05:48:37;-0.47;77.34
68026;SHT31;54819;48.030;14.710;2024-01-15T05:51:04;-0.48;77.39
68026;SHT31;54819;48.030;14.710;2024-01-15T05:53:30;-0.48;77.39
68026;SHT31;54819;48.030;14.710;2024-01-15T05:55:57;-0.50;77.40
68026;SHT31;54819;48.030;14.710;2024-01-15T05:58:23;-0.49;77.51
68026;SHT31;54819;48.030;14.710;2024-01-15T06:00:50;-0.46;77.60
68026;SHT31;54819;48.030;14.710;2024-01-15T06:03:17;-0.45;77.58
68026;SHT31;54819;48.030;14.710;2024-01-15T06:05:44;-0.44;77.61
68026;SHT31;54819;48.030;14.710;2024-01-15T06:08:11;-0.45;77.54
68026;SHT31;54819;48.030;14.710;2024-01-15T06:10:37;-0.46;77.60
68026;SHT31;54819;48.030;14.710;2024-01-15T06:13:04;-0.48;77.51
68026;SHT31;54819;48.030;14.710;2024-01-15T06:15:30;-0.49;77.50
68026;SHT31;54819;48.030;14.710;2024-01-15T06:17:57;-0.48;77.58
68026;SHT31;54819;48.030;14.710;2024-01-15T06:20:24;-0.44;77.60
68026;SHT31;54819;48.030;14.710;2024-01-15T06:22:51;-0.40;77.60
68026;SHT31;54819;48.030;14.710;2024-01-15T06:25:17;-0.36;77.60
68026;SHT31;54819;48.030;14.710;2024-01-15T06:27:44;-0.31;77.60
68026;SHT31;54819;48.030;14.710;2024-01-15T06:30:11;-0.27;77.60
68026;SHT31;54819;48.030;14.710;2024-01-15T06:32:38;-0.22;77.56
68026;SHT31;54819;48.030;14.710;2024-01-15T06:35:05;-0.17;77.50
68026;SHT31;54819;48.030;14.710;2024-01-15T06:37:32;-0.12;77.46
68026;SHT31;54819;48.030;14.710;2024-01-15T06:39:59;-0.07;77.21
68026;SHT31;54819;48.030;14.710;2024-01-15T06:42:26;-0.02;77.10
68026;SHT31;54819;48.030;14.710;2024-01-15T06:44:53;-0.01;77.07
68026;SHT31;54819;48.030;14.710;2024-01-15T06:47:19;0.00;76.95
68026;SHT31;54819;48.030;14.710;2024-01-15T06:49:46;0.02;76.47
68026;SHT31;54819;48.030;14.710;2024-01-15T06:52:13;0.03;76.07
68026;SHT31;54819;48.030;14.710;2024-01-15T06:54:40;0.04;76.05
68026;SHT31;54819;48.030;14.710;2024-01-15T06:57:06;0.05;76.06
68026;SHT31;54819;48.030;14.710;2024-01-15T06:59:34;0.04;75.99
68026;SHT31;54819;48.030;14.710;2024-01-15T07:02:02;0.04;75.93
68026;SHT31;54819;48.030;14.710;2024-01-15T07:04:29;0.07;76.03
68026;SHT31;54819;48.030;14.710;2024-01-15T07:06:56;0.05;76.06
68026;SHT31;54819;48.030;14.710;2024-01-15T07:09:22;0.04;75.97
68026;SHT31;54819;48.030;14.710;2024-01-15T07:11:49;0.05;75.85
68026;SHT31;54819;48.030;14.710;2024-01-15T07:14:16;0.09;75.81
68026;SHT31;54819;48.030;14.710;2024-01-15T07:16:43;0.13;75.84
68026;SHT31;54819;48.030;14.710;2024-01-15T07:19:14;0.16;75.90
68026;SHT31;54819;48.030;14.710;2024-01-15T07:21:41;0.19;75.82
68026;SHT31;54819;48.030;14.710;2024-01-15T07:24:10;0.20;75.79
68026;SHT31;54819;48.030;14.710;2024-01-15T07:26:37;0.24;75.81
68026;SHT31;54819;48.030;14.710;2024-01-15T07:29:04;0.27;75.88
68026;SHT31;54819;48.030;14.710;2024-01-15T07:31:30;0.30;75.74
68026;SHT31;54819;48.030;14.710;2024-01-15T07:33:57;0.33;75.56
68026;SHT31;54819;48.030;14.710;2024-01-15T07:36:24;0.37;75.60
68026;SHT31;54819;48.030;14.710;2024-01-15T07:38:51;0.38;75.47
68026;SHT31;54819;48.030;14.710;2024-01-15T07:41:18;0.44;75.46
68026;SHT31;54819;48.030;14.710;2024-01-15T07:43:45;0.50;75.73
68026;SHT31;54819;48.030;14.710;2024-01-15T07:46:12;0.57;75.74
68026;SHT31;54819;48.030;14.710;2024-01-15T07:48:39;0.65;75.90
68026;SHT31;54819;48.030;14.710;2024-01-15T07:51:06;0.71;75.98
68026;SHT31;54819;48.030;14.710;2024-01-15T07:53:32;0.76;75.98
68026;SHT31;54819;48.030;14.710;2024-01-15T07:55:59;0.82;76.02
68026;SHT31;54819;48.030;14.710;2024-01-15T07:58:26;0.84;76.02
68026;SHT31;54819;48.030;14.710;2024-01-15T08:00:52;0.88;76.44
68026;SHT31;54819;48.030;14.710;2024-01-15T08:03:19;0.92;76.70
68026;SHT31;54819;48.030;14.710;2024-01-15T08:05:46;0.95;77.20
68026;SHT31;54819;48.030;14.710;2024-01-15T08:08:13;0.97;77.60
68026;SHT31;54819;48.030;14.710;2024-01-15T08:10:40;0.97;77.91
68026;SHT31;54819;48.030;14.710;2024-01-15T08:13:07;0.98;78.11
68026;SHT31;54819;48.030;14.710;2024-01-15T08:15:35;0.98;78.17
68026;SHT31;54819;48.030;14.710;2024-01-15T08:18:02;1.02;78.29
68026;SHT31;54819;48.030;14.710;2024-01-15T08:20:29;1.04;78.46
68026;SHT31;54819;48.030;14.710;2024-01-15T08:22:57;1.07;78.45
68026;SHT31;54819;48.030;14.710;2024-01-15T08:25:24;1.07;78.61
68026;SHT31;54819;48.030;14.710;2024-01-15T08:27:50;1.06;78.70
68026;SHT31;54819;48.030;14.710;2024-01-15T08:30:17;1.13;78.74
68026;SHT31;54819;48.030;14.710;2024-01-15T08:32:47;1.20;78.82
68026;SHT31;54819;48.030;14.710;2024-01-15T08:35:15;1.23;78.83
68026;SHT31;54819;48.030;14.710;2024-01-15T08:37:42;1.28;78.77
68026;SHT31;54819;48.030;14.710;2024-01-15T08:40:10;1.33;78.69
68026;SHT31;54819;48.030;14.710;2024-01-15T08:42:37;1.37;78.64
68026;SHT31;54819;48.030;14.710;2024-01-15T08:45:04;1.42;78.62
68026;SHT31;54819;48.030;14.710;2024-01-15T08:47:32;1.47;78.73
68026;SHT31;54819;48.030;14.710;2024-01-15T08:49:58;1.50;78.72
68026;SHT31;54819;48.030;14.710;2024-01-15T08:52:25;1.52;78.66
68026;SHT31;54819;48.030;14.710;2024-01-15T08:54:52;1.54;78.57
68026;SHT31;54819;48.030;14.710;2024-01-15T08:57:19;1.57;78.45
68026;SHT31;54819;48.030;14.710;2024-01-15T08:59:46;1.59;78.22
68026;SHT31;54819;48.030;14.710;2024-01-15T09:02:13;1.63;78.09
68026;SHT31;54819;48.030;14.710;2024-01-15T09:04:40;1.69;78.04
68026;SHT31;54819;48.030;14.710;2024-01-15T09:07:07;1.77;78.00
68026;SHT31;54819;48.030;14.710;2024-01-15T09:09:34;1.83;77.71
68026;SHT31;54819;48.030;14.710;2024-01-15T09:12:01;1.90;77.49
68026;SHT31;54819;48.030;14.710;2024-01-15T09:14:28;1.98;77.40
68026;SHT31;54819;48.030;14.710;2024-01-15T09:17:03;2.06;77.02
68026;SHT31;54819;48.030;14.710;2024-01-15T09:19:31;2.13;76.82
68026;SHT31;54819;48.030;14.710;2024-01-15T09:21:59;2.18;76.12
68026;SHT31;54819;48.030;14.710;2024-01-15T09:24:25;2.25;76.01
68026;SHT31;54819;48.030;14.710;2024-01-15T09:26:54;2.29;75.71
68026;SHT31;54819;48.030;14.710;2024-01-15T09:29:21;2.34;75.38
68026;SHT31;54819;48.030;14.710;2024-01-15T09:31:50;2.38;75.10
68026;SHT31;54819;48.030;14.710;2024-01-15T09:34:17;2.39;74.49
68026;SHT31;54819;48.030;14.710;2024-01-15T09:36:45;2.35;73.82
68026;SHT31;54819;48.030;14.710;2024-01-15T09:39:12;2.34;73.40
68026;SHT31;54819;48.030;14.710;2024-01-15T09:41:38;2.33;72.93
68026;SHT31;54819;48.030;14.710;2024-01-15T09:44:06;2.34;72.81
68026;SHT31;54819;48.030;14.710;2024-01-15T09:46:35;2.35;72.74
68026;SHT31;54819;48.030;14.710;2024-01-15T09:49:02;2.36;72.58
68026;SHT31;54819;48.030;14.710;2024-01-15T09:51:30;2.38;72.71
68026;SHT31;54819;48.030;14.710;2024-01-15T09:53:58;2.35;72.48
68026;SHT31;54819;48.030;14.710;2024-01-15T09:56:25;2.32;72.44
68026;SHT31;54819;48.030;14.710;2024-01-15T09:58:51;2.28;72.05
68026;SHT31;54819;48.030;14.710;2024-01-15T10:01:22;2.26;72.22
68026;SHT31;54819;48.030;14.710;2024-01-15T10:03:50;2.30;72.12
68026;SHT31;54819;48.030;14.710;2024-01-15T10:06:17;2.30;71.98
68026;SHT31;54819;48.030;14.710;2024-01-15T10:08:49;2.26;71.41
68026;SHT31;54819;48.030;14.710;2024-01-15T10:11:17;2.23;71.65
68026;SHT31;54819;48.030;14.710;2024-01-15T10:13:44;2.23;72.08
68026;SHT31;54819;48.030;14.710;2024-01-15T10:16:12;2.17;71.34
68026;SHT31;54819;48.030;14.710;2024-01-15T10:18:39;2.19;71.98
68026;SHT31;54819;48.030;14.710;2024-01-15T10:21:07;2.16;71.98
68026;SHT31;54819;48.030;14.710;2024-01-15T10:23:34;2.12;71.89
68026;SHT31;54819;48.030;14.710;2024-01-15T10:26:05;2.11;72.30
68026;SHT31;54819;48.030;14.710;2024-01-15T10:28:32;2.07;72.16
68026;SHT31;54819;48.030;14.710;2024-01-15T10:30:59;2.03;72.15
68026;SHT31;54819;48.030;14.710;2024-01-15T10:33:27;2.00;72.12
68026;SHT31;54819;48.030;14.710;2024-01-15T10:35:55;1.97;72.18
68026;SHT31;54819;48.030;14.710;2024-01-15T10:38:24;1.95;71.96
68026;SHT31;54819;48.030;14.710;2024-01-15T10:40:51;1.97;71.95
68026;SHT31;54819;48.030;14.710;2024-01-15T10:43:19;1.96;71.39
68026;SHT31;54819;48.030;14.710;2024-01-15T10:45:47;1.99;71.12
68026;SHT31;54819;48.030;14.710;2024-01-15T10:48:16;2.00;70.56
68026;SHT31;54819;48.030;14.710;2024-01-15T10:50:45;2.06;70.57
68026;SHT31;54819;48.030;14.710;2024-01-15T10:53:13;2.13;70.08
68026;SHT31;54819;48.030;14.710;2024-01-15T10:55:42;2.19;69.33
68026;SHT31;54819;48.030;14.710;2024-01-15T10:58:09;2.31;69.84
68026;SHT31;54819;48.030;14.710;2024-01-15T11:00:37;2.42;69.94
68026;SHT31;54819;48.030;14.710;2024-01-15T11:03:05;2.48;68.73
68026;SHT31;54819;48.030;14.710;2024-01-15T11:05:41;2.54;68.70
68026;SHT31;54819;48.030;14.710;2024-01-15T11:08:09;2.60;68.49
68026;SHT31;54819;48.030;14.710;2024-01-15T11:10:38;2.61;68.28
68026;SHT31;54819;48.030;14.710;2024-01-15T11:13:21;2.62;67.87
68026;SHT31;54819;48.030;14.710;2024-01-15T11:15:57;2.59;67.87
68026;SHT31;54819;48.030;14.710;2024-01-15T11:18:31;2.54;67.77
68026;SHT31;54819;48.030;14.710;2024-01-15T11:26:38;2.60;68.36
68026;SHT31;54819;48.030;14.710;2024-01-15T11:29:28;2.61;67.76
68026;SHT31;54819;48.030;14.710;2024-01-15T11:37:19;2.80;66.52
68026;SHT31;54819;48.030;14.710;2024-01-15T11:39:46;2.86;66.53
68026;SHT31;54819;48.030;14.710;2024-01-15T11:42:14;2.89;65.95
68026;SHT31;54819;48.030;14.710;2024-01-15T11:44:42;2.91;65.93
68026;SHT31;54819;48.030;14.710;2024-01-15T11:47:09;2.96;66.17
68026;SHT31;54819;48.030;14.710;2024-01-15T11:50:03;3.00;65.95
68026;SHT31;54819;48.030;14.710;2024-01-15T11:52:33;2.99;65.22
68026;SHT31;54819;48.030;14.710;2024-01-15T11:55:04;3.02;65.15
68026;SHT31;54819;48.030;14.710;2024-01-15T11:57:42;3.06;64.66
68026;SHT31;54819;48.030;14.710;2024-01-15T12:00:13;3.07;64.20
68026;SHT31;54819;48.030;14.710;2024-01-15T12:02:41;3.11;64.29
68026;SHT31;54819;48.030;14.710;2024-01-15T12:05:09;3.15;64.36
68026;SHT31;54819;48.030;14.710;2024-01-15T12:07:39;3.19;64.48
68026;SHT31;54819;48.030;14.710;2024-01-15T12:10:10;3.22;64.51
68026;SHT31;54819;48.030;14.710;2024-01-15T12:12:44;3.24;64.45
68026;SHT31;54819;48.030;14.710;2024-01-15T12:15:20;3.27;64.44
68026;SHT31;54819;48.030;14.710;2024-01-15T12:17:47;3.26;64.18
68026;SHT31;54819;48.030;14.710;2024-01-15T12:20:14;3.24;63.86
68026;SHT31;54819;48.030;14.710;2024-01-15T12:22:42;3.22;64.05
68026;SHT31;54819;48.030;14.710;2024-01-15T12:25:26;3.19;64.15
68026;SHT31;54819;48.030;14.710;2024-01-15T12:27:53;3.15;64.04
68026;SHT31;54819;48.030;14.710;2024-01-15T12:30:20;3.18;64.29
68026;SHT31;54819;48.030;14.710;2024-01-15T12:32:48;3.13;63.75
68026;SHT31;54819;48.030;14.710;2024-01-15T12:35:15;3.07;63.58
68026;SHT31;54819;48.030;14.710;2024-01-15T12:37:42;3.08;64.21
68026;SHT31;54819;48.030;14.710;2024-01-15T12:40:10;3.14;64.52
68026;SHT31;54819;48.030;14.710;2024-01-15T12:42:37;3.18;64.49
68026;SHT31;54819;48.030;14.710;2024-01-15T12:45:08;3.17;64.35
68026;SHT31;54819;48.030;14.710;2024-01-15T12:47:36;3.15;64.29
68026;SHT31;54819;48.030;14.710;2024-01-15T12:50:07;3.20;64.63
68026;SHT31;54819;48.030;14.710;2024-01-15T12:52:45;3.23;64.47
68026;SHT31;54819;48.030;14.710;2024-01-15T12:55:13;3.20;63.98
68026;SHT31;54819;48.030;14.710;2024-01-15T12:57:42;3.23;64.51
68026;SHT31;54819;48.030;14.710;2024-01-15T13:00:09;3.26;64.84
68026;SHT31;54819;48.030;14.710;2024-01-15T13:02:41;3.27;64.74
68026;SHT31;54819;48.030;14.710;2024-01-15T13:05:10;3.24;64.54
68026;SHT31;54819;48.030;14.710;2024-01-15T13:07:40;3.23;64.89
68026;SHT31;54819;48.030;14.710;2024-01-15T13:10:07;3.20;64.85
68026;SHT31;54819;48.030;14.710;2024-01-15T13:12:36;3.16;64.57
68026;SHT31;54819;48.030;14.710;2024-01-15T13:15:05;3.16;64.89
68026;SHT31;54819;48.030;14.710;2024-01-15T13:17:32;3.16;64.94
68026;SHT31;54819;48.030;14.710;2024-01-15T13:19:59;3.13;64.82
68026;SHT31;54819;48.030;14.710;2024-01-15T13:22:26;3.10;64.94
68026;SHT31;54819;48.030;14.710;2024-01-15T13:24:59;3.01;64.26
68026;SHT31;54819;48.030;14.710;2024-01-15T13:27:27;2.89;64.25
68026;SHT31;54819;48.030;14.710;2024-01-15T13:29:55;2.80;64.71
68026;SHT31;54819;48.030;14.710;2024-01-15T13:32:25;2.78;65.44
68026;SHT31;54819;48.030;14.710;2024-01-15T13:34:53;2.71;65.95
68026;SHT31;54819;48.030;14.710;2024-01-15T13:37:23;2.62;66.32
68026;SHT31;54819;48.030;14.710;2024-01-15T13:39:54;2.64;66.68
68026;SHT31;54819;48.030;14.710;2024-01-15T13:42:21;2.60;66.49
68026;SHT31;54819;48.030;14.710;2024-01-15T13:44:54;2.58;66.75
68026;SHT31;54819;48.030;14.710;2024-01-15T13:47:21;2.57;66.87
68026;SHT31;54819;48.030;14.710;2024-01-15T13:49:48;2.52;66.41
68026;SHT31;54819;48.030;14.710;2024-01-15T13:52:14;2.51;66.52
68026;SHT31;54819;48.030;14.710;2024-01-15T13:54:41;2.48;66.78
68026;SHT31;54819;48.030;14.710;2024-01-15T13:57:16;2.47;66.88
68026;SHT31;54819;48.030;14.710;2024-01-15T13:59:45;2.45;66.88
68026;SHT31;54819;48.030;14.710;2024-01-15T14:02:13;2.42;66.71
68026;SHT31;54819;48.030;14.710;2024-01-15T14:04:46;2.42;66.85
68026;SHT31;54819;48.030;14.710;2024-01-15T14:07:13;2.43;66.55
68026;SHT31;54819;48.030;14.710;2024-01-15T14:09:40;2.45;66.20
68026;SHT31;54819;48.030;14.710;2024-01-15T14:12:07;2.44;66.05
68026;SHT31;54819;48.030;14.710;2024-01-15T14:14:33;2.47;65.83
68026;SHT31;54819;48.030;14.710;2024-01-15T14:17:00;2.47;65.67
68026;SHT31;54819;48.030;14.710;2024-01-15T14:19:27;2.47;65.55
68026;SHT31;54819;48.030;14.710;2024-01-15T14:21:54;2.46;65.91
68026;SHT31;54819;48.030;14.710;2024-01-15T14:24:22;2.43;66.12
68026;SHT31;54819;48.030;14.710;2024-01-15T14:26:48;2.41;66.19
68026;SHT31;54819;48.030;14.710;2024-01-15T14:29:15;2.37;65.95
68026;SHT31;54819;48.030;14.710;2024-01-15T14:31:42;2.36;65.99
68026;SHT31;54819;48.030;14.710;2024-01-15T14:34:09;2.32;66.10
68026;SHT31;54819;48.030;14.710;2024-01-15T14:36:35;2.29;66.17
68026;SHT31;54819;48.030;14.710;2024-01-15T14:39:03;2.26;66.18
68026;SHT31;54819;48.030;14.710;2024-01-15T14:41:31;2.23;66.51
68026;SHT31;54819;48.030;14.710;2024-01-15T14:43:57;2.20;66.68
68026;SHT31;54819;48.030;14.710;2024-01-15T14:46:24;2.18;66.88
68026;SHT31;54819;48.030;14.710;2024-01-15T14:48:54;2.15;67.01
68026;SHT31;54819;48.030;14.710;2024-01-15T14:51:21;2.11;67.17
68026;SHT31;54819;48.030;14.710;2024-01-15T14:53:48;2.10;67.12
68026;SHT31;54819;48.030;14.710;2024-01-15T14:56:15;2.07;67.03
68026;SHT31;54819;48.030;14.710;2024-01-15T14:58:45;2.03;66.72
68026;SHT31;54819;48.030;14.710;2024-01-15T15:01:12;2.01;66.83
68026;SHT31;54819;48.030;14.710;2024-01-15T15:03:39;1.99;66.96
68026;SHT31;54819;48.030;14.710;2024-01-15T15:06:06;1.95;67.10
68026;SHT31;54819;48.030;14.710;2024-01-15T15:08:35;1.93;66.81
68026;SHT31;54819;48.030;14.710;2024-01-15T15:11:03;1.88;66.75
68026;SHT31;54819;48.030;14.710;2024-01-15T15:13:31;1.87;66.56
68026;SHT31;54819;48.030;14.710;2024-01-15T15:16:10;1.86;66.94
68026;SHT31;54819;48.030;14.710;2024-01-15T15:18:37;1.82;67.01
68026;SHT31;54819;48.030;14.710;2024-01-15T15:21:05;1.80;67.06
68026;SHT31;54819;48.030;14.710;2024-01-15T15:23:33;1.78;67.04
68026;SHT31;54819;48.030;14.710;2024-01-15T15:26:00;1.75;67.01
68026;SHT31;54819;48.030;14.710;2024-01-15T15:28:28;1.73;66.52
68026;SHT31;54819;48.030;14.710;2024-01-15T15:30:54;1.71;66.37
68026;SHT31;54819;48.030;14.710;2024-01-15T15:33:23;1.70;65.53
68026;SHT31;54819;48.030;14.710;2024-01-15T15:35:50;1.70;64.91
68026;SHT31;54819;48.030;14.710;2024-01-15T15:38:17;1.69;65.06